Time;durP1;ratioP1;P1;durP2;ratioP2;P2;SDS_P1;SDS_P2;PMS_P1;PMS_P2;Temp;Humidity;BMP_temperature;BMP_pressure;BME280_temperature;BME280_humidity;BME280_pressure;Samples;Min_cycle;Max_cycle;Signal;HPM_P1;HPM_P2
2024/01/23 00:02:00;;;;;;;3.78;0.63;;;5.40;99.90;;;4.65;100.00;97829.63;5008258;28;20403;-44
2024/01/23 00:04:26;;;;;;;6.80;1.05;;;5.40;99.90;;;4.67;100.00;97830.50;5004616;28;20132;-44
2024/01/23 00:06:52;;;;;;;3.55;0.80;;;5.40;99.90;;;4.69;100.00;97843.53;5006223;28;20125;-43
2024/01/23 00:09:18;;;;;;;1.48;0.60;;;5.40;99.90;;;4.71;100.00;97845.25;5006112;28;20033;-45
2024/01/23 00:11:43;;;;;;;1.85;0.50;;;5.50;99.90;;;4.75;100.00;97852.19;5004991;28;20135;-45
2024/01/23 00:14:09;;;;;;;2.33;0.60;;;5.50;99.90;;;4.84;100.00;97851.28;5004802;28;20618;-44
2024/01/23 00:16:35;;;;;;;2.92;0.60;;;5.60;99.90;;;4.87;100.00;97846.03;5003295;28;20068;-45
2024/01/23 00:19:01;;;;;;;2.35;0.68;;;5.60;99.90;;;4.88;100.00;97846.88;5004554;28;20033;-45
2024/01/23 00:21:27;;;;;;;2.15;0.73;;;5.70;99.90;;;4.93;100.00;97852.94;5007918;28;20056;-45
2024/01/23 00:23:53;;;;;;;3.20;0.70;;;5.70;99.90;;;4.97;100.00;97854.66;5005417;28;20037;-45
2024/01/23 00:26:18;;;;;;;1.90;0.60;;;5.70;99.90;;;4.99;100.00;97852.94;5010209;28;20400;-44
2024/01/23 00:28:44;;;;;;;4.03;0.80;;;5.70;99.90;;;5.00;100.00;97838.97;5009160;28;20413;-45
2024/01/23 00:31:10;;;;;;;6.75;0.93;;;5.80;99.90;;;5.00;100.00;97845.94;4999241;28;20034;-45
2024/01/23 00:33:36;;;;;;;4.70;0.73;;;5.80;99.90;;;4.99;100.00;97839.84;5007325;28;20033;-44
2024/01/23 00:36:01;;;;;;;3.65;0.80;;;5.80;99.90;;;4.92;100.00;97838.16;5011616;28;20030;-44
2024/01/23 00:38:27;;;;;;;4.30;1.27;;;5.70;99.90;;;4.88;100.00;97833.81;5012311;28;20057;-45
2024/01/23 00:40:53;;;;;;;2.40;0.88;;;5.70;99.90;;;4.90;100.00;97839.91;5009336;28;20045;-45
2024/01/23 00:43:18;;;;;;;1.40;0.52;;;5.70;99.90;;;4.87;100.00;97835.56;5010512;28;20566;-44
2024/01/23 00:45:44;;;;;;;3.72;0.60;;;5.60;99.90;;;4.83;100.00;97831.25;5014218;28;20041;-45
2024/01/23 00:48:10;;;;;;;1.95;0.73;;;5.60;99.90;;;4.84;100.00;97850.41;5012131;28;20533;-45
2024/01/23 00:50:35;;;;;;;2.45;0.75;;;5.60;99.90;;;4.84;100.00;97846.03;5012353;28;20024;-44
2024/01/23 00:53:01;;;;;;;2.60;0.75;;;5.60;99.90;;;4.87;100.00;97832.97;5012980;28;20489;-44
2024/01/23 00:55:27;;;;;;;2.10;0.60;;;5.60;99.90;;;4.90;100.00;97835.56;5012934;28;20052;-45
2024/01/23 00:57:53;;;;;;;1.77;0.57;;;5.70;99.90;;;4.94;100.00;97839.03;5014448;28;20033;-45
2024/01/23 01:00:19;;;;;;;2.08;0.70;;;5.70;99.90;;;4.95;100.00;97844.25;5015181;28;20030;-44
2024/01/23 01:02:45;;;;;;;1.20;0.50;;;5.70;99.90;;;4.98;100.00;97853.78;5014447;28;20371;-44
2024/01/23 01:05:10;;;;;;;1.95;0.70;;;5.70;99.90;;;5.04;100.00;97856.34;5013354;28;20033;-44
2024/01/23 01:07:36;;;;;;;3.72;0.80;;;5.80;99.90;;;5.06;100.00;97859.84;5016540;28;20033;-44
2024/01/23 01:10:04;;;;;;;3.85;0.75;;;5.80;99.90;;;5.04;100.00;97863.34;5017454;28;20119;-44
2024/01/23 01:12:30;;;;;;;1.80;0.65;;;5.80;99.90;;;5.04;100.00;97869.41;5015906;28;20433;-45
2024/01/23 01:14:55;;;;;;;9.77;1.70;;;5.80;99.90;;;5.01;100.00;97868.56;5017603;28;20514;-45
2024/01/23 01:17:21;;;;;;;4.20;0.90;;;5.80;99.90;;;4.76;100.00;97833.03;5000329;28;20048;-45
2024/01/23 01:19:48;;;;;;;6.85;1.10;;;5.80;99.90;;;4.93;100.00;97892.16;5011146;28;20478;-45
2024/01/23 01:22:14;;;;;;;4.07;0.75;;;5.70;99.90;;;4.90;100.00;97881.72;5004551;28;20037;-45
2024/01/23 01:24:39;;;;;;;5.93;1.13;;;5.70;99.90;;;4.86;100.00;97880.88;5004677;28;20033;-45
2024/01/23 01:27:06;;;;;;;6.07;1.08;;;5.60;99.90;;;4.81;100.00;97872.22;5008731;28;20025;-44
2024/01/23 01:29:31;;;;;;;2.55;0.70;;;5.60;99.90;;;4.79;100.00;97879.16;5010139;28;20040;-45
2024/01/23 01:31:57;;;;;;;3.60;0.90;;;5.50;99.90;;;4.73;100.00;97885.31;5008206;28;20034;-45
2024/01/23 01:34:23;;;;;;;5.00;0.90;;;5.50;99.90;;;4.64;100.00;97879.28;5001438;28;24106;-45
2024/01/23 01:36:48;;;;;;;5.50;0.80;;;5.40;99.90;;;4.54;100.00;97886.28;5019309;28;20034;-45
2024/01/23 01:39:14;;;;;;;5.90;1.42;;;5.30;99.90;;;4.50;100.00;97902.84;5009166;28;20087;-44
2024/01/23 01:41:40;;;;;;;4.95;0.90;;;5.30;99.90;;;4.48;100.00;97904.59;5004965;28;20048;-44
2024/01/23 01:44:07;;;;;;;4.15;1.00;;;5.30;99.90;;;4.51;100.00;97917.66;5011173;28;20498;-45
2024/01/23 01:46:33;;;;;;;2.88;0.93;;;5.30;99.90;;;4.44;100.00;97908.13;5007787;28;20042;-45
2024/01/23 01:48:58;;;;;;;3.33;0.60;;;5.30;99.90;;;4.53;100.00;97923.75;5028084;28;20041;-44
2024/01/23 01:51:27;;;;;;;2.97;0.80;;;5.30;99.90;;;4.52;100.00;97919.38;5012566;28;20033;-44
2024/01/23 01:53:53;;;;;;;3.58;0.90;;;5.30;99.90;;;4.50;100.00;97913.31;5027935;28;20026;-44
2024/01/23 01:56:22;;;;;;;4.65;0.90;;;5.30;99.90;;;4.40;100.00;97902.91;5013998;28;20032;-43
2024/01/23 01:58:48;;;;;;;4.93;0.80;;;5.20;99.90;;;4.24;100.00;97909.06;5019576;28;20033;-45
2024/01/23 02:01:14;;;;;;;4.43;0.90;;;5.10;99.90;;;4.24;100.00;97914.28;5028846;28;20036;-44
2024/01/23 02:03:40;;;;;;;4.68;0.73;;;5.00;99.90;;;4.15;100.00;97907.34;5014148;28;20041;-45
2024/01/23 02:06:07;;;;;;;5.47;0.85;;;4.90;99.90;;;4.05;100.00;97907.38;5017855;28;20033;-44
2024/01/23 02:08:35;;;;;;;4.10;0.90;;;4.80;99.90;;;4.06;100.00;97917.81;5015012;28;20087;-44
2024/01/23 02:11:03;;;;;;;4.82;0.70;;;4.80;99.90;;;3.96;100.00;97905.66;5015874;28;20044;-45
2024/01/23 02:13:28;;;;;;;3.72;0.80;;;4.80;99.90;;;3.97;100.00;97916.09;5013257;28;20188;-45
2024/01/23 02:15:54;;;;;;;3.17;0.85;;;4.80;99.90;;;3.94;100.00;97920.47;5005384;28;20116;-45
2024/01/23 02:18:20;;;;;;;5.68;1.00;;;4.70;99.90;;;3.96;100.00;97916.97;5009546;28;20738;-45
2024/01/23 02:20:46;;;;;;;5.22;0.70;;;4.70;99.90;;;3.98;100.00;97930.00;5004415;28;20575;-45
2024/01/23 02:23:15;;;;;;;5.60;1.02;;;4.80;99.90;;;4.09;100.00;97937.81;5003579;28;20045;-44
2024/01/23 02:25:43;;;;;;;5.10;0.93;;;4.80;99.90;;;4.15;100.00;97932.59;5004525;28;20044;-44
2024/01/23 02:28:15;;;;;;;4.43;0.73;;;4.90;99.90;;;4.18;100.00;97932.56;5005257;28;20053;-44
2024/01/23 02:30:41;;;;;;;4.13;0.98;;;5.00;99.90;;;4.26;100.00;97943.88;5005842;28;20049;-45
2024/01/23 02:33:07;;;;;;;7.57;1.10;;;5.00;99.90;;;4.24;100.00;97945.63;5008383;28;20087;-45
2024/01/23 02:35:33;;;;;;;9.30;1.33;;;5.00;99.90;;;4.04;100.00;97934.34;5004757;28;20522;-45
2024/01/23 02:37:59;;;;;;;7.25;1.48;;;4.90;99.90;;;4.03;100.00;97943.91;5003265;28;20496;-44
2024/01/23 02:40:25;;;;;;;9.00;1.50;;;4.80;99.90;;;4.03;100.00;97935.22;5010299;28;20067;-44
2024/01/23 02:42:51;;;;;;;7.15;1.17;;;4.70;99.90;;;3.90;100.00;97914.38;5004856;28;20160;-44
2024/01/23 02:45:18;;;;;;;8.32;1.27;;;4.70;99.90;;;4.03;100.00;97922.19;5005747;28;20533;-44
2024/01/23 02:47:43;;;;;;;5.95;1.40;;;4.70;99.90;;;4.23;100.00;97930.81;5004356;28;20393;-45
2024/01/23 02:50:09;;;;;;;10.10;1.85;;;4.80;99.90;;;4.30;100.00;97929.91;5004441;28;20056;-44
2024/01/23 02:52:35;;;;;;;13.35;1.55;;;4.90;99.90;;;4.33;100.00;97932.53;5002653;28;20044;-45
2024/01/23 02:55:01;;;;;;;13.48;1.58;;;5.00;99.90;;;4.37;100.00;97931.63;5006922;28;20034;-44
2024/01/23 02:57:27;;;;;;;7.28;1.23;;;5.00;99.90;;;4.29;100.00;97936.03;5009574;28;20839;-44
2024/01/23 02:59:53;;;;;;;11.07;1.40;;;5.10;99.90;;;4.37;100.00;97960.34;5010103;28;20120;-44
2024/01/23 03:02:20;;;;;;;10.88;1.48;;;5.10;99.90;;;4.39;100.00;97961.22;4981436;28;20192;-44
2024/01/23 03:04:46;;;;;;;10.68;1.50;;;5.10;99.90;;;4.49;100.00;97956.84;5016232;28;20045;-44
2024/01/23 03:07:13;;;;;;;11.23;1.63;;;5.20;99.90;;;4.50;100.00;97958.56;5004579;28;20087;-45
2024/01/23 03:09:38;;;;;;;8.48;1.70;;;5.30;99.90;;;4.60;100.00;97962.03;5000016;28;20059;-45
2024/01/23 03:12:19;;;;;;;9.95;1.48;;;5.30;99.90;;;4.69;100.00;97966.34;5011135;28;20033;-45
2024/01/23 03:14:45;;;;;;;8.80;1.60;;;5.40;99.90;;;4.69;100.00;97955.91;5010599;28;21000;-45
2024/01/23 03:17:12;;;;;;;9.25;1.70;;;5.40;99.90;;;4.73;100.00;97960.22;5002967;28;20035;-45
2024/01/23 03:19:39;;;;;;;9.73;1.80;;;5.50;99.90;;;4.72;100.00;97961.97;5002527;28;20333;-45
2024/01/23 03:22:05;;;;;;;9.15;1.58;;;5.40;99.90;;;4.69;100.00;97948.06;5006421;28;20041;-45
2024/01/23 03:24:31;;;;;;;10.20;1.40;;;5.50;99.90;;;4.66;100.00;97955.91;5003038;28;20517;-45
2024/01/23 03:26:57;;;;;;;10.50;1.88;;;5.40;99.90;;;4.70;100.00;97962.84;5004909;28;20069;-44
2024/01/23 03:29:24;;;;;;;9.25;1.40;;;5.50;99.90;;;4.81;100.00;97963.69;5001718;28;20045;-45
2024/01/23 03:31:50;;;;;;;8.85;1.30;;;5.50;99.90;;;4.87;100.00;97974.09;5007876;28;20037;-45
2024/01/23 03:34:18;;;;;;;14.65;1.83;;;5.50;99.90;;;4.81;100.00;97973.25;5010346;28;20044;-44
2024/01/23 03:36:44;;;;;;;10.43;1.17;;;5.50;99.90;;;4.73;100.00;97971.53;5002557;28;20560;-45
2024/01/23 03:39:09;;;;;;;8.68;1.75;;;5.50;99.90;;;4.69;100.00;97961.13;5003095;28;20216;-45
2024/01/23 03:41:37;;;;;;;7.78;1.10;;;5.50;99.90;;;4.73;100.00;97979.38;5008293;28;20122;-45
2024/01/23 03:44:06;;;;;;;10.88;1.70;;;5.50;99.90;;;4.76;100.00;97986.34;5005406;28;20087;-44
2024/01/23 03:46:32;;;;;;;8.23;1.55;;;5.50;99.90;;;4.68;100.00;97986.38;5004624;28;20079;-44
2024/01/23 03:48:58;;;;;;;10.27;1.50;;;5.50;99.90;;;4.80;100.00;97993.28;5014075;28;20288;-45
2024/01/23 03:51:24;;;;;;;7.68;1.60;;;5.50;99.90;;;4.88;100.00;97988.91;5008999;28;20044;-46
2024/01/23 03:53:49;;;;;;;13.32;1.92;;;5.60;99.90;;;4.95;100.00;98001.09;5015868;28;20029;-44
2024/01/23 03:56:16;;;;;;;10.30;1.60;;;5.60;99.90;;;5.04;100.00;98007.97;5015060;28;20060;-45
2024/01/23 03:58:42;;;;;;;11.60;1.60;;;5.70;99.90;;;5.10;100.00;97994.88;5001556;28;20025;-43
2024/01/23 04:01:08;;;;;;;7.30;1.85;;;5.80;99.90;;;5.13;100.00;97997.50;4990277;28;20026;-42
2024/01/23 04:03:34;;;;;;;9.48;1.48;;;5.80;99.90;;;5.20;100.00;98007.91;4998560;28;20131;-43
2024/01/23 04:06:00;;;;;;;8.10;1.63;;;5.90;99.90;;;5.21;100.00;98010.53;5001858;28;20041;-44
2024/01/23 04:08:26;;;;;;;13.32;1.92;;;5.90;99.90;;;5.30;100.00;97999.13;5002449;28;20136;-44
2024/01/23 04:10:51;;;;;;;12.35;1.40;;;6.00;99.90;;;5.32;100.00;97986.91;5000275;28;23918;-43
2024/01/23 04:13:17;;;;;;;9.18;1.25;;;6.00;99.90;;;5.46;100.00;97999.91;5003960;28;20558;-43
2024/01/23 04:15:43;;;;;;;7.82;1.67;;;6.10;99.90;;;5.45;100.00;98006.00;5003880;28;20299;-44
2024/01/23 04:18:09;;;;;;;11.23;1.77;;;6.20;99.90;;;5.43;100.00;98006.00;5006993;28;20044;-43
2024/01/23 04:20:34;;;;;;;12.70;1.67;;;6.10;99.90;;;5.52;100.00;98013.78;5002537;28;21284;-43
2024/01/23 04:23:00;;;;;;;10.45;1.33;;;6.20;99.90;;;5.53;100.00;98012.94;5003547;28;20049;-43
2024/01/23 04:25:26;;;;;;;8.23;1.45;;;6.20;99.90;;;5.52;100.00;98020.78;5017163;28;20030;-43
2024/01/23 04:27:53;;;;;;;9.75;1.65;;;6.20;99.90;;;5.51;100.00;97998.13;5006870;28;20045;-43
2024/01/23 04:30:19;;;;;;;12.30;1.67;;;6.20;99.90;;;5.47;100.00;97992.06;5002997;28;20490;-43
2024/01/23 04:32:45;;;;;;;11.07;1.45;;;6.20;99.90;;;5.33;100.00;97991.28;5004546;28;20038;-44
2024/01/23 04:35:12;;;;;;;11.13;1.58;;;6.10;99.90;;;5.26;100.00;97992.19;5007174;28;20026;-43
2024/01/23 04:37:38;;;;;;;8.82;1.40;;;6.00;99.90;;;5.23;100.00;98015.75;5005701;28;20033;-43
2024/01/23 04:40:07;;;;;;;13.30;2.03;;;6.00;99.90;;;5.23;100.00;98024.44;5010479;28;20040;-43
2024/01/23 04:42:33;;;;;;;10.93;1.90;;;6.00;99.90;;;5.26;100.00;98020.97;5002463;28;20087;-42
2024/01/23 04:44:59;;;;;;;9.98;1.67;;;5.90;99.90;;;5.18;100.00;98041.91;5009332;28;20166;-43
2024/01/23 04:47:25;;;;;;;9.27;1.50;;;5.90;99.90;;;5.13;100.00;98041.06;5013309;28;20109;-43
2024/01/23 04:49:52;;;;;;;11.20;1.98;;;5.90;99.90;;;5.10;100.00;98041.09;5005572;28;20205;-43
2024/01/23 04:52:18;;;;;;;13.98;1.35;;;5.80;99.90;;;5.10;100.00;98035.88;5010107;28;20030;-43
2024/01/23 04:54:43;;;;;;;5.47;1.27;;;5.80;99.90;;;5.08;100.00;98045.44;5009924;28;20040;-43
2024/01/23 04:57:11;;;;;;;10.27;1.10;;;5.80;99.90;;;5.13;100.00;98051.50;5009466;28;20028;-43
2024/01/23 04:59:37;;;;;;;5.95;1.20;;;5.80;99.90;;;5.13;100.00;98044.56;5008523;28;20030;-44
2024/01/23 05:02:05;;;;;;;16.73;1.70;;;5.90;99.90;;;5.12;100.00;98037.59;5006475;28;20041;-45
2024/01/23 05:04:30;;;;;;;5.80;1.20;;;5.90;99.90;;;5.05;100.00;98014.97;5013456;28;20033;-45
2024/01/23 05:06:56;;;;;;;6.05;1.08;;;5.80;99.90;;;4.97;100.00;98051.59;5010336;28;20041;-44
2024/01/23 05:09:22;;;;;;;4.93;0.90;;;5.70;99.90;;;4.92;100.00;98066.44;5011773;28;20067;-44
2024/01/23 05:11:48;;;;;;;6.32;1.05;;;5.70;99.90;;;4.93;100.00;98076.00;5004217;28;20048;-45
2024/01/23 05:14:16;;;;;;;6.45;1.15;;;5.60;99.90;;;4.95;100.00;98095.19;5007264;28;20029;-44
2024/01/23 05:16:42;;;;;;;6.53;1.02;;;5.70;99.90;;;4.91;100.00;98090.81;5006552;28;20113;-44
2024/01/23 05:19:07;;;;;;;8.75;1.10;;;5.70;99.90;;;4.88;100.00;98101.31;5009991;28;20508;-44
2024/01/23 05:21:33;;;;;;;3.85;0.93;;;5.60;99.90;;;4.83;100.00;98104.78;5007392;28;20116;-45
2024/01/23 05:24:02;;;;;;;8.23;1.38;;;5.60;99.90;;;4.80;100.00;98125.72;5013915;28;20037;-44
2024/01/23 05:26:28;;;;;;;4.07;1.00;;;5.60;99.90;;;4.80;100.00;98137.03;5011603;28;20045;-45
2024/01/23 05:28:54;;;;;;;7.38;1.20;;;5.60;99.90;;;4.77;100.00;98137.03;5014378;28;20551;-45
2024/01/23 05:31:20;;;;;;;8.27;1.17;;;5.60;99.90;;;4.76;100.00;98137.91;5012387;28;20572;-45
2024/01/23 05:33:46;;;;;;;7.28;0.80;;;5.50;99.90;;;4.73;100.00;98145.75;5011058;28;20037;-45
2024/01/23 05:36:11;;;;;;;6.68;1.27;;;5.50;99.90;;;4.68;100.00;98142.28;5016043;28;20049;-44
2024/01/23 05:38:37;;;;;;;10.48;1.20;;;5.50;99.90;;;4.61;100.00;98144.03;5015011;28;20037;-45
2024/01/23 05:41:03;;;;;;;8.32;1.33;;;5.40;99.90;;;4.53;100.00;98154.50;5016592;28;20068;-45
2024/01/23 05:43:29;;;;;;;8.57;1.27;;;5.30;99.90;;;4.52;100.00;98154.47;5016994;28;20029;-43
2024/01/23 05:45:55;;;;;;;5.32;1.10;;;5.30;99.90;;;4.52;100.00;98155.38;5016615;28;20036;-45
2024/01/23 05:48:21;;;;;;;9.35;1.20;;;5.30;99.90;;;4.55;100.00;98172.78;5018932;28;20037;-45
2024/01/23 05:50:47;;;;;;;5.38;1.08;;;5.30;99.90;;;4.48;100.00;98166.69;5016814;28;20037;-44
2024/01/23 05:53:13;;;;;;;11.05;1.50;;;5.30;99.90;;;4.50;100.00;98175.38;5019259;28;20039;-44
2024/01/23 05:55:38;;;;;;;7.28;1.10;;;5.30;99.90;;;4.50;100.00;98184.97;5014055;28;20034;-44
2024/01/23 05:58:05;;;;;;;3.30;0.95;;;5.30;99.90;;;4.48;100.00;98184.97;5019472;28;20049;-44
2024/01/23 06:00:31;;;;;;;6.53;1.17;;;5.30;99.90;;;4.47;100.00;98191.06;5011631;28;20323;-44
2024/01/23 06:02:57;;;;;;;7.00;1.02;;;5.20;99.90;;;4.39;100.00;98196.28;5032298;28;20025;-44
2024/01/23 06:05:22;;;;;;;5.00;1.05;;;5.20;99.90;;;4.44;100.00;98184.97;5017178;28;20037;-44
2024/01/23 06:07:49;;;;;;;4.05;0.80;;;5.20;99.90;;;4.34;100.00;98210.19;5013248;28;20040;-45
2024/01/23 06:10:16;;;;;;;5.45;1.10;;;5.10;99.90;;;4.24;100.00;98203.25;5017649;28;20065;-45
2024/01/23 06:12:42;;;;;;;3.10;0.60;;;5.10;99.90;;;4.28;100.00;98218.03;5013140;28;20554;-44
2024/01/23 06:15:08;;;;;;;9.07;0.93;;;5.10;99.90;;;4.22;100.00;98224.13;5017906;28;20091;-45
2024/01/23 06:17:34;;;;;;;6.80;1.05;;;5.00;99.90;;;4.06;100.00;98227.59;5015035;28;20136;-45
2024/01/23 06:20:04;;;;;;;3.80;0.90;;;4.80;99.90;;;3.85;100.00;98213.59;5015018;28;20770;-44
2024/01/23 06:22:33;;;;;;;6.13;0.68;;;4.80;99.90;;;3.96;100.00;98239.72;5013840;28;20490;-44
2024/01/23 06:25:02;;;;;;;5.93;0.90;;;4.70;99.90;;;3.96;100.00;98244.94;5017084;28;20106;-44
2024/01/23 06:27:28;;;;;;;1.83;0.80;;;4.70;99.90;;;3.98;100.00;98257.16;5015854;28;20123;-45
2024/01/23 06:29:54;;;;;;;5.25;1.60;;;4.70;99.90;;;3.99;100.00;98261.50;5016198;28;20160;-45
2024/01/23 06:32:19;;;;;;;5.32;0.90;;;4.80;99.90;;;4.02;100.00;98281.53;5015749;28;20042;-42
2024/01/23 06:34:45;;;;;;;2.97;0.60;;;4.80;99.90;;;4.05;100.00;98281.50;5012906;28;20068;-44
2024/01/23 06:37:11;;;;;;;4.72;0.88;;;4.80;99.90;;;4.14;100.00;98291.13;5017005;28;20033;-44
2024/01/23 06:39:36;;;;;;;6.60;1.23;;;4.90;99.90;;;4.19;100.00;98289.41;5014836;28;20021;-43
2024/01/23 06:42:02;;;;;;;9.07;0.85;;;5.00;99.90;;;4.20;100.00;98301.59;5017950;28;20036;-43
2024/01/23 06:44:28;;;;;;;4.82;1.02;;;5.00;99.90;;;4.25;100.00;98312.03;5015036;28;20087;-44
2024/01/23 06:46:54;;;;;;;3.17;0.70;;;5.00;99.90;;;4.25;100.00;98322.47;5013780;28;20210;-44
2024/01/23 06:49:20;;;;;;;4.18;0.98;;;5.00;99.90;;;4.20;100.00;98317.25;5015989;28;20047;-42
2024/01/23 06:51:45;;;;;;;6.07;1.58;;;5.00;99.90;;;4.18;100.00;98339.84;5014539;28;20091;-43
2024/01/23 06:54:12;;;;;;;3.83;0.73;;;5.00;99.90;;;4.11;100.00;98333.75;5016950;28;20033;-43
2024/01/23 06:56:37;;;;;;;4.18;0.88;;;4.90;99.90;;;4.04;100.00;98342.44;5011473;28;20067;-43
2024/01/23 06:59:05;;;;;;;2.90;0.88;;;4.80;99.90;;;3.83;100.00;98336.25;5019954;28;20467;-44
2024/01/23 07:01:31;;;;;;;4.47;0.90;;;4.70;99.90;;;3.83;100.00;98353.63;5017863;28;20037;-44
2024/01/23 07:03:57;;;;;;;4.63;0.90;;;4.70;99.90;;;3.74;100.00;98369.25;5015562;28;20039;-45
2024/01/23 07:06:22;;;;;;;4.30;1.00;;;4.50;99.90;;;3.68;100.00;98369.19;5017162;28;20433;-44
2024/01/23 07:08:48;;;;;;;3.55;0.70;;;4.40;99.90;;;3.52;100.00;98369.13;5015102;28;20083;-45
2024/01/23 07:11:14;;;;;;;3.20;0.75;;;4.30;99.90;;;3.47;100.00;98376.03;5015142;28;20053;-45
2024/01/23 07:13:40;;;;;;;4.35;0.85;;;4.30;99.90;;;3.35;100.00;98387.22;5013355;28;20446;-44
2024/01/23 07:16:06;;;;;;;5.50;0.80;;;4.20;99.90;;;3.23;100.00;98387.13;5016050;28;20045;-45
2024/01/23 07:18:32;;;;;;;3.67;0.90;;;4.10;99.90;;;3.22;100.00;98385.41;5016220;28;20103;-44
2024/01/23 07:20:59;;;;;;;5.95;0.90;;;4.00;99.90;;;3.36;100.00;98390.75;5014435;28;20438;-44
2024/01/23 07:23:25;;;;;;;8.80;1.05;;;4.00;99.90;;;3.22;100.00;98377.59;5014995;28;20060;-44
2024/01/23 07:25:51;;;;;;;2.92;0.60;;;4.10;99.90;;;3.28;100.00;98389.78;5014792;28;20124;-45
2024/01/23 07:28:16;;;;;;;8.18;1.25;;;4.10;99.90;;;3.35;100.00;98394.19;5015826;28;20034;-45
2024/01/23 07:30:42;;;;;;;9.32;1.00;;;4.10;99.90;;;3.39;100.00;98398.56;5011364;28;20486;-44
2024/01/23 07:33:09;;;;;;;10.20;1.52;;;4.10;99.90;;;3.47;100.00;98399.50;5017036;28;20037;-45
2024/01/23 07:35:35;;;;;;;2.25;0.73;;;4.30;99.90;;;3.47;100.00;98394.28;5013063;28;20041;-44
2024/01/23 07:38:00;;;;;;;4.95;0.90;;;4.20;99.90;;;3.49;100.00;98400.38;5015251;28;20414;-44
2024/01/23 07:40:26;;;;;;;7.57;1.23;;;4.30;99.90;;;3.59;100.00;98399.59;5004847;28;20357;-44
2024/01/23 07:42:52;;;;;;;4.10;1.13;;;4.30;99.90;;;3.56;100.00;98411.75;5012425;28;20044;-44
2024/01/23 07:45:18;;;;;;;9.10;1.45;;;4.30;99.90;;;3.46;100.00;98421.22;5015538;28;20430;-45
2024/01/23 07:47:44;;;;;;;9.45;1.10;;;4.30;99.90;;;3.54;100.00;98418.69;5012838;28;20406;-45
2024/01/23 07:50:11;;;;;;;9.02;1.10;;;4.30;99.90;;;3.54;100.00;98423.91;5014904;28;20025;-45
2024/01/23 07:52:37;;;;;;;6.72;0.82;;;4.30;99.90;;;3.48;100.00;98435.13;5013287;28;20030;-45
2024/01/23 07:55:03;;;;;;;7.55;1.27;;;4.30;99.90;;;3.46;100.00;98439.47;5015288;28;20044;-45
2024/01/23 07:57:29;;;;;;;6.68;1.10;;;4.30;99.90;;;3.47;100.00;98449.06;5012784;28;20032;-45
2024/01/23 07:59:54;;;;;;;5.65;0.90;;;4.20;99.90;;;3.49;100.00;98454.28;5013195;28;20041;-44
2024/01/23 08:02:20;;;;;;;9.63;1.75;;;4.30;99.90;;;3.40;100.00;98452.47;5013342;28;20513;-44
2024/01/23 08:04:46;;;;;;;5.00;1.02;;;4.30;99.90;;;3.44;100.00;98456.84;5009915;28;20478;-45
2024/01/23 08:07:11;;;;;;;3.20;0.88;;;4.30;99.90;;;3.47;100.00;98458.63;5014413;28;20033;-45
2024/01/23 08:09:37;;;;;;;7.40;0.95;;;4.30;99.90;;;3.51;100.00;98460.41;5011163;28;20190;-45
2024/01/23 08:12:06;;;;;;;5.00;1.30;;;4.30;99.90;;;3.51;100.00;98460.41;5010838;28;20219;-45
2024/01/23 08:14:31;;;;;;;5.38;0.90;;;4.30;99.90;;;3.48;100.00;98474.25;5012522;28;20135;-45
2024/01/23 08:16:57;;;;;;;3.65;0.90;;;4.30;99.90;;;3.44;100.00;98469.91;5012085;28;20541;-45
2024/01/23 08:19:23;;;;;;;8.40;1.50;;;4.30;99.90;;;3.37;100.00;98475.91;5014686;28;20073;-45
2024/01/23 08:21:49;;;;;;;3.63;1.10;;;4.20;99.90;;;3.36;100.00;98484.63;5012390;28;20360;-44
2024/01/23 08:24:15;;;;;;;7.20;0.88;;;4.10;99.90;;;3.36;100.00;98484.63;5015402;28;20036;-45
2024/01/23 08:26:41;;;;;;;7.65;0.80;;;4.20;99.90;;;3.38;100.00;98480.28;5012840;28;20474;-44
2024/01/23 08:29:07;;;;;;;4.90;0.95;;;4.20;99.90;;;3.37;100.00;98479.38;5014847;28;20455;-45
2024/01/23 08:31:33;;;;;;;5.45;0.85;;;4.20;99.90;;;3.38;100.00;98475.06;5012647;28;20567;-45
2024/01/23 08:33:59;;;;;;;5.03;0.80;;;4.20;99.90;;;3.42;100.00;98482.91;5015449;28;20037;-46
2024/01/23 08:36:24;;;;;;;5.90;0.88;;;4.20;99.90;;;3.48;100.00;98491.66;5011695;28;20104;-46
2024/01/23 08:38:50;;;;;;;8.68;1.10;;;4.30;99.90;;;3.48;100.00;98482.09;5011080;28;20053;-46
2024/01/23 08:41:16;;;;;;;7.70;1.02;;;4.30;99.90;;;3.58;100.00;98478.72;5010688;28;20096;-46
2024/01/23 08:43:42;;;;;;;6.00;1.25;;;4.40;99.90;;;3.70;100.00;98485.78;5014294;28;20513;-45
2024/01/23 08:46:07;;;;;;;4.72;1.23;;;4.50;99.90;;;3.76;100.00;98485.81;5012601;28;20026;-45
2024/01/23 08:48:33;;;;;;;8.88;1.33;;;4.60;99.90;;;3.87;100.00;98488.50;5008329;28;20030;-46
2024/01/23 08:50:59;;;;;;;5.57;1.10;;;4.60;99.90;;;4.03;100.00;98499.06;5009340;28;20119;-45
2024/01/23 08:53:24;;;;;;;5.60;1.45;;;4.80;99.90;;;4.27;100.00;98500.94;5008556;28;20037;-45
2024/01/23 08:55:50;;;;;;;5.25;0.85;;;5.00;99.90;;;4.44;100.00;98503.66;5010251;28;20038;-45
2024/01/23 08:58:17;;;;;;;5.15;1.13;;;5.20;99.90;;;4.55;100.00;98505.44;5011228;28;20021;-46
2024/01/23 09:00:43;;;;;;;1.70;0.70;;;5.30;99.90;;;4.66;100.00;98502.88;5012717;28;20060;-46
2024/01/23 09:03:09;;;;;;;5.88;1.08;;;5.40;99.90;;;4.59;100.00;98506.31;5026139;28;20061;-45
2024/01/23 09:05:35;;;;;;;2.67;0.60;;;5.40;99.90;;;4.48;100.00;98502.78;5010346;28;20390;-45
2024/01/23 09:08:01;;;;;;;7.65;1.00;;;5.30;99.90;;;4.51;100.00;98511.53;5005526;28;20033;-46
2024/01/23 09:10:27;;;;;;;6.15;0.90;;;5.30;99.90;;;4.54;100.00;98521.09;5012701;28;20025;-45
2024/01/23 09:12:53;;;;;;;3.65;0.82;;;5.40;99.90;;;4.56;100.00;98506.34;5009585;28;20037;-45
2024/01/23 09:15:19;;;;;;;3.72;0.98;;;5.50;99.90;;;4.90;100.00;98529.97;5031717;28;21087;-45
2024/01/23 09:17:45;;;;;;;4.75;0.93;;;5.60;99.90;;;5.04;100.00;98522.19;5010163;28;20402;-45
2024/01/23 09:20:11;;;;;;;5.43;0.80;;;5.80;99.90;;;5.23;100.00;98533.59;5013868;28;20040;-46
2024/01/23 09:22:37;;;;;;;0.73;0.50;;;6.00;99.90;;;5.34;100.00;98531.84;5007700;28;20246;-44
2024/01/23 09:25:05;;;;;;;3.17;0.93;;;6.20;99.90;;;5.39;100.00;98539.72;5013648;28;20043;-44
2024/01/23 09:27:31;;;;;;;4.22;0.90;;;6.20;99.90;;;5.47;100.00;98551.97;5014576;28;20036;-44
2024/01/23 09:29:56;;;;;;;6.75;0.95;;;6.30;99.90;;;5.54;100.00;98556.34;5014248;28;20033;-45
2024/01/23 09:32:22;;;;;;;3.85;1.00;;;6.40;99.90;;;5.65;100.00;98566.81;5015389;28;20555;-46
2024/01/23 09:34:48;;;;;;;5.20;0.70;;;6.50;99.90;;;5.77;100.00;98570.31;5014582;28;20041;-46
2024/01/23 09:37:14;;;;;;;1.98;0.93;;;6.60;99.90;;;5.72;100.00;98570.28;5016327;28;20032;-46
2024/01/23 09:39:40;;;;;;;2.92;0.63;;;6.60;99.90;;;5.71;100.00;98576.41;5012531;28;20033;-46
2024/01/23 09:42:07;;;;;;;4.40;1.00;;;6.60;99.90;;;5.70;100.00;98587.75;5015414;28;20120;-46
2024/01/23 09:44:33;;;;;;;4.05;1.10;;;6.60;99.90;;;5.73;100.00;98586.00;5013559;28;20125;-46
2024/01/23 09:46:59;;;;;;;4.18;0.90;;;6.60;99.90;;;5.79;100.00;98589.50;5012500;28;20550;-45
2024/01/23 09:49:26;;;;;;;2.08;0.80;;;6.60;99.90;;;5.79;100.00;98577.28;5027692;28;20402;-45
2024/01/23 09:51:54;;;;;;;2.47;0.90;;;6.60;99.90;;;5.96;100.00;98589.53;5044510;28;20370;-46
2024/01/23 09:54:23;;;;;;;2.70;0.93;;;6.80;99.90;;;5.89;100.00;98589.53;5029721;28;20025;-46
2024/01/23 09:56:49;;;;;;;3.45;0.60;;;6.80;99.90;;;5.93;100.00;98593.88;5012152;28;20034;-46
2024/01/23 09:59:15;;;;;;;3.70;0.68;;;6.70;99.90;;;5.88;100.00;98585.13;5015321;28;20022;-46
2024/01/23 10:01:41;;;;;;;1.42;0.40;;;6.70;99.90;;;5.89;100.00;98593.88;5014001;28;20033;-45
2024/01/23 10:04:07;;;;;;;0.93;0.40;;;6.70;99.90;;;5.82;100.00;98589.53;5012163;28;20029;-46
2024/01/23 10:06:33;;;;;;;4.90;1.10;;;6.60;99.90;;;5.73;100.00;98595.63;5012090;28;20520;-46
2024/01/23 10:08:59;;;;;;;3.35;0.82;;;6.60;99.90;;;5.62;100.00;98594.72;5010869;28;20037;-46
2024/01/23 10:11:29;;;;;;;4.45;0.50;;;6.50;99.90;;;5.57;100.00;98599.06;5010325;28;20032;-46
2024/01/23 10:13:58;;;;;;;1.25;0.47;;;6.30;99.90;;;5.46;100.00;98585.97;5016837;28;20033;-46
2024/01/23 10:16:25;;;;;;;3.10;0.63;;;6.30;99.90;;;5.40;100.00;98589.44;5014978;28;20052;-46
2024/01/23 10:18:51;;;;;;;3.58;0.80;;;6.20;99.90;;;5.39;100.00;98589.44;5010421;28;20241;-45
2024/01/23 10:21:21;;;;;;;2.53;0.60;;;6.10;99.90;;;5.47;100.00;98598.16;5013920;28;20029;-46